Time;durP1;ratioP1;P1;durP2;ratioP2;P2;SDS_P1;SDS_P2;PMS_P1;PMS_P2;Temp;Humidity;BMP_temperature;BMP_pressure;BME280_temperature;BME280_humidity;BME280_pressure;Samples;Min_cycle;Max_cycle;Signal;HPM_P1;HPM_P2
2022/09/21 00:01:47;;;;;;;13.70;3.20;;;20.90;99.90;;;;;;5073151;28;20207;-69
2022/09/21 00:04:14;;;;;;;10.40;2.47;;;20.80;99.90;;;;;;5073435;28;20199;-68
2022/09/21 00:06:46;;;;;;;12.40;2.00;;;20.90;99.90;;;;;;5074294;28;20197;-68
2022/09/21 00:09:15;;;;;;;11.37;1.97;;;20.70;99.90;;;;;;5072946;28;20172;-72
2022/09/21 00:11:43;;;;;;;8.73;2.50;;;21.00;99.90;;;;;;5072991;28;20187;-67
2022/09/21 00:14:14;;;;;;;8.47;2.07;;;21.20;99.90;;;;;;5073829;28;20183;-68
2022/09/21 00:16:44;;;;;;;16.83;2.60;;;21.70;99.90;;;;;;5074072;28;20630;-68
2022/09/21 00:19:12;;;;;;;10.57;2.87;;;22.10;99.90;;;;;;5072742;28;20179;-68
2022/09/21 00:21:41;;;;;;;8.57;2.93;;;22.20;99.90;;;;;;5074102;28;20202;-69
2022/09/21 00:24:10;;;;;;;10.47;2.20;;;21.70;99.90;;;;;;5073508;28;20175;-68
2022/09/21 00:26:43;;;;;;;10.93;2.50;;;21.60;99.90;;;;;;5073689;28;20215;-72
2022/09/21 00:29:12;;;;;;;8.60;2.17;;;20.60;99.90;;;;;;5073769;28;20168;-73
2022/09/21 00:31:40;;;;;;;9.77;2.60;;;20.50;99.90;;;;;;5072636;28;20180;-68
2022/09/21 00:34:08;;;;;;;7.00;2.27;;;20.40;99.90;;;;;;5073433;28;20174;-68
2022/09/21 00:36:41;;;;;;;6.13;1.90;;;20.40;99.90;;;;;;5073744;28;20638;-68
2022/09/21 00:39:10;;;;;;;13.33;2.47;;;20.40;99.90;;;;;;5072298;28;20176;-67
2022/09/21 00:41:39;;;;;;;8.07;2.03;;;20.40;99.90;;;;;;5073478;28;20191;-69
2022/09/21 00:44:15;;;;;;;8.03;2.27;;;20.40;99.90;;;;;;5072522;28;20237;-68
2022/09/21 00:46:44;;;;;;;5.40;2.03;;;20.30;99.90;;;;;;5074010;28;20181;-70
2022/09/21 00:49:20;;;;;;;8.37;2.17;;;20.50;99.90;;;;;;5073720;28;20540;-72
2022/09/21 00:51:52;;;;;;;12.30;2.80;;;20.60;99.90;;;;;;5074355;28;20580;-69
2022/09/21 00:54:29;;;;;;;4.07;1.97;;;20.70;99.90;;;;;;5073427;28;20172;-68
2022/09/21 00:57:01;;;;;;;9.87;1.83;;;20.80;99.90;;;;;;5073551;28;20276;-68
2022/09/21 00:59:33;;;;;;;10.70;2.07;;;20.80;99.90;;;;;;5073508;28;20262;-72
2022/09/21 01:02:03;;;;;;;8.67;2.37;;;20.70;99.90;;;;;;5073428;28;20169;-71
2022/09/21 01:04:37;;;;;;;9.00;2.40;;;20.80;99.90;;;;;;5073044;28;20188;-72
2022/09/21 01:07:13;;;;;;;6.20;1.87;;;20.60;99.90;;;;;;5073376;28;20191;-68
2022/09/21 01:09:44;;;;;;;8.80;2.07;;;20.70;99.90;;;;;;5071912;28;20183;-70
2022/09/21 01:12:30;;;;;;;8.97;2.70;;;20.50;99.90;;;;;;5073558;28;20189;-69
2022/09/21 01:15:23;;;;;;;10.27;2.67;;;20.60;99.90;;;;;;5073132;28;20268;-68
2022/09/21 01:18:02;;;;;;;9.17;2.67;;;20.50;99.90;;;;;;5072276;28;20186;-71
2022/09/21 01:20:48;;;;;;;5.70;2.27;;;20.50;99.90;;;;;;5072328;28;20188;-65
2022/09/21 01:23:22;;;;;;;12.47;2.27;;;20.80;99.90;;;;;;5072610;28;20178;-68
2022/09/21 01:25:55;;;;;;;11.63;2.33;;;21.00;99.90;;;;;;5070198;28;20231;-68
2022/09/21 01:28:54;;;;;;;10.23;2.03;;;21.00;99.90;;;;;;5078255;28;20207;-67
2022/09/21 01:31:31;;;;;;;8.40;2.00;;;20.90;99.90;;;;;;5056971;28;20249;-68
2022/09/21 01:34:07;;;;;;;12.23;2.60;;;21.00;99.90;;;;;;5078078;28;20175;-69
2022/09/21 01:36:47;;;;;;;9.87;2.03;;;21.00;99.90;;;;;;5078149;28;20217;-69
2022/09/21 01:39:19;;;;;;;11.47;1.93;;;21.00;99.90;;;;;;5078215;28;20199;-68
2022/09/21 01:41:48;;;;;;;4.37;1.77;;;20.90;99.90;;;;;;5077534;28;20315;-67
2022/09/21 01:44:24;;;;;;;14.40;2.67;;;21.10;99.90;;;;;;5077842;28;20571;-70
2022/09/21 01:46:53;;;;;;;9.87;2.00;;;21.10;99.90;;;;;;5061887;28;20274;-67
2022/09/21 01:49:33;;;;;;;11.57;2.30;;;21.20;99.90;;;;;;5066452;28;20249;-68
2022/09/21 01:52:41;;;;;;;12.57;2.13;;;21.30;99.90;;;;;;5076700;28;20191;-69
2022/09/21 01:55:41;;;;;;;8.23;2.20;;;21.40;99.90;;;;;;5077046;28;20537;-66
2022/09/21 01:58:16;;;;;;;12.13;2.47;;;21.30;99.90;;;;;;5054433;28;20273;-67
2022/09/21 02:00:48;;;;;;;13.13;2.57;;;21.40;99.90;;;;;;5077898;28;20184;-68
2022/09/21 02:03:36;;;;;;;12.50;2.00;;;21.50;99.90;;;;;;5076695;28;20645;-67
2022/09/21 02:06:05;;;;;;;11.47;2.30;;;21.60;99.90;;;;;;5078004;28;20567;-70
2022/09/21 02:08:35;;;;;;;12.27;2.77;;;21.70;99.90;;;;;;5077840;28;20195;-71
2022/09/21 02:11:11;;;;;;;5.57;1.93;;;21.80;99.90;;;;;;5075235;28;20195;-69
2022/09/21 02:13:45;;;;;;;12.57;2.37;;;21.70;99.90;;;;;;5077897;28;20187;-70
2022/09/21 02:16:32;;;;;;;5.00;1.53;;;21.50;99.90;;;;;;5076344;28;20546;-69
2022/09/21 02:19:31;;;;;;;10.07;2.10;;;21.40;99.90;;;;;;5077586;28;20251;-69
2022/09/21 02:22:34;;;;;;;13.00;2.60;;;21.50;99.90;;;;;;5075032;28;20209;-67
2022/09/21 02:25:30;;;;;;;9.63;2.27;;;21.50;99.90;;;;;;5045359;28;20646;-67
2022/09/21 02:28:29;;;;;;;9.57;1.90;;;21.40;99.90;;;;;;5077429;28;20262;-68
2022/09/21 02:31:16;;;;;;;6.00;2.07;;;21.20;99.90;;;;;;5077406;28;20200;-67
2022/09/21 02:33:50;;;;;;;8.23;1.97;;;21.30;99.90;;;;;;5073326;28;20178;-68
2022/09/21 02:36:39;;;;;;;6.10;1.57;;;21.30;99.90;;;;;;5073976;28;20234;-69
2022/09/21 02:39:25;;;;;;;7.40;2.20;;;21.30;99.90;;;;;;5074587;28;20221;-68
2022/09/21 02:42:06;;;;;;;6.50;2.53;;;21.30;99.90;;;;;;5073998;28;20184;-67
2022/09/21 02:44:47;;;;;;;9.33;2.90;;;21.20;99.90;;;;;;5074258;28;20179;-68
2022/09/21 02:47:36;;;;;;;6.23;2.63;;;21.30;99.90;;;;;;5072667;28;20195;-68
2022/09/21 02:50:12;;;;;;;8.80;2.80;;;21.40;99.90;;;;;;5074024;28;20180;-66
2022/09/21 02:52:42;;;;;;;6.40;2.10;;;21.30;99.90;;;;;;5073616;28;20183;-66
2022/09/21 02:55:14;;;;;;;5.10;2.27;;;21.10;99.90;;;;;;5073847;28;20223;-68
2022/09/21 02:57:43;;;;;;;10.50;2.27;;;21.00;99.90;;;;;;5073933;28;20204;-67
2022/09/21 03:00:11;;;;;;;9.77;2.30;;;20.90;99.90;;;;;;5074018;28;20325;-68
2022/09/21 03:02:41;;;;;;;7.03;2.20;;;20.90;99.90;;;;;;5073462;28;20184;-68
2022/09/21 03:05:11;;;;;;;8.27;2.00;;;20.90;99.90;;;;;;5065013;28;20181;-70
2022/09/21 03:07:39;;;;;;;7.97;2.40;;;20.90;99.90;;;;;;5053622;28;20177;-67
2022/09/21 03:10:08;;;;;;;12.50;2.90;;;20.80;99.90;;;;;;5053766;28;20181;-68
2022/09/21 03:12:35;;;;;;;6.63;2.50;;;20.80;99.90;;;;;;5063455;28;20175;-67
2022/09/21 03:15:04;;;;;;;11.10;2.50;;;20.90;99.90;;;;;;5073639;28;20234;-70
2022/09/21 03:17:31;;;;;;;9.77;2.83;;;20.90;99.90;;;;;;5073568;28;20164;-69
2022/09/21 03:19:59;;;;;;;7.33;3.03;;;20.90;99.90;;;;;;5073650;28;20179;-67
2022/09/21 03:22:26;;;;;;;10.13;2.47;;;20.90;99.90;;;;;;5073082;28;20216;-67
2022/09/21 03:24:56;;;;;;;13.67;3.40;;;20.90;99.90;;;;;;5073149;28;20249;-66
2022/09/21 03:27:24;;;;;;;10.60;3.30;;;21.00;99.90;;;;;;5079040;28;20179;-69
2022/09/21 03:29:51;;;;;;;12.20;2.60;;;20.90;99.90;;;;;;5077141;28;20173;-69
2022/09/21 03:32:19;;;;;;;15.87;2.03;;;20.90;99.90;;;;;;5074973;28;20232;-68
2022/09/21 03:34:46;;;;;;;13.13;2.40;;;20.90;99.90;;;;;;5073894;28;20292;-69
2022/09/21 03:37:14;;;;;;;11.60;2.47;;;21.00;99.90;;;;;;5074770;28;20180;-71
2022/09/21 03:39:41;;;;;;;9.90;2.17;;;21.00;99.90;;;;;;5074074;28;20171;-68
2022/09/21 03:42:09;;;;;;;11.30;2.50;;;21.00;99.90;;;;;;5073491;28;20518;-69
2022/09/21 03:44:36;;;;;;;9.63;3.03;;;21.10;99.90;;;;;;5072281;28;20187;-70
2022/09/21 03:47:05;;;;;;;8.83;2.40;;;21.10;99.90;;;;;;5073096;28;20183;-70
2022/09/21 03:49:33;;;;;;;6.10;2.40;;;21.00;99.90;;;;;;5072536;28;20210;-69
2022/09/21 03:52:01;;;;;;;12.63;2.80;;;20.80;99.90;;;;;;5072907;28;20221;-70
2022/09/21 03:54:29;;;;;;;10.87;2.57;;;20.50;99.90;;;;;;5072790;28;20245;-71
2022/09/21 03:56:56;;;;;;;10.00;2.63;;;20.40;99.90;;;;;;5072879;28;20270;-70
2022/09/21 03:59:23;;;;;;;11.77;2.70;;;20.40;99.90;;;;;;5072877;28;20178;-68
2022/09/21 04:01:51;;;;;;;13.70;2.97;;;20.40;99.90;;;;;;5072779;28;20182;-68
2022/09/21 04:04:19;;;;;;;14.57;2.93;;;20.40;99.90;;;;;;5072672;28;20630;-68
2022/09/21 04:06:46;;;;;;;12.87;2.40;;;20.40;99.90;;;;;;5066697;28;20675;-70
2022/09/21 04:09:17;;;;;;;12.70;2.97;;;20.50;99.90;;;;;;5052698;28;20626;-68
2022/09/21 04:11:47;;;;;;;10.60;2.47;;;20.60;99.90;;;;;;5052727;28;20185;-69
2022/09/21 04:14:15;;;;;;;8.50;2.17;;;20.60;99.90;;;;;;5052817;28;20192;-69
2022/09/21 04:16:45;;;;;;;10.30;2.53;;;20.60;99.90;;;;;;5062367;28;20564;-70
2022/09/21 04:19:13;;;;;;;9.63;2.53;;;20.70;99.90;;;;;;5072626;28;20255;-71
2022/09/21 04:21:40;;;;;;;14.50;3.20;;;20.50;99.90;;;;;;5072272;28;20217;-68
2022/09/21 04:24:09;;;;;;;14.50;2.77;;;20.60;99.90;;;;;;5072276;28;20176;-72
2022/09/21 04:26:39;;;;;;;7.17;2.57;;;20.60;99.90;;;;;;5071943;28;20302;-72
2022/09/21 04:29:13;;;;;;;13.30;2.37;;;20.50;99.90;;;;;;5072116;28;20594;-69
2022/09/21 04:31:41;;;;;;;14.30;3.23;;;20.40;99.90;;;;;;5072154;28;20668;-68
2022/09/21 04:34:13;;;;;;;11.40;2.93;;;20.40;99.90;;;;;;5072292;28;20512;-68
2022/09/21 04:36:46;;;;;;;11.83;2.50;;;20.40;99.90;;;;;;5071054;28;20277;-69
2022/09/21 04:39:19;;;;;;;18.07;3.80;;;20.40;99.90;;;;;;5072083;28;20645;-72
2022/09/21 04:41:47;;;;;;;6.17;2.40;;;20.30;99.90;;;;;;5072472;28;20189;-68
2022/09/21 04:44:14;;;;;;;9.47;3.40;;;20.30;99.90;;;;;;5073516;28;20176;-68
2022/09/21 04:46:42;;;;;;;8.33;3.53;;;20.30;99.90;;;;;;5073312;28;20172;-68
2022/09/21 04:49:11;;;;;;;11.47;3.33;;;20.30;99.90;;;;;;5073403;28;20222;-67
2022/09/21 04:51:44;;;;;;;7.27;2.57;;;20.40;99.90;;;;;;5072858;28;20224;-71
2022/09/21 04:54:16;;;;;;;5.47;2.33;;;20.40;99.90;;;;;;5073501;28;20176;-69
2022/09/21 04:56:46;;;;;;;7.60;2.50;;;20.40;99.90;;;;;;5072683;28;20184;-68
2022/09/21 04:59:24;;;;;;;8.67;2.50;;;20.40;99.90;;;;;;5073701;28;20183;-68
2022/09/21 05:01:51;;;;;;;9.77;2.53;;;20.40;99.90;;;;;;5073450;28;20494;-69
2022/09/21 05:04:21;;;;;;;7.17;2.87;;;20.40;99.90;;;;;;5073297;28;20172;-71
2022/09/21 05:06:49;;;;;;;9.63;2.47;;;20.30;99.90;;;;;;5053382;28;20646;-70
2022/09/21 05:12:01;;;;;;;11.07;2.73;;;20.20;99.90;;;;;;5053403;28;20192;-68
2022/09/21 05:14:30;;;;;;;7.97;2.53;;;20.10;99.90;;;;;;5068214;28;20199;-69
2022/09/21 05:16:59;;;;;;;8.13;2.63;;;20.00;99.90;;;;;;5071513;28;20204;-70
2022/09/21 05:19:26;;;;;;;9.10;2.83;;;20.00;99.90;;;;;;5073481;28;20190;-70
2022/09/21 05:21:56;;;;;;;15.97;3.50;;;19.90;99.90;;;;;;5073418;28;20286;-71
2022/09/21 05:24:26;;;;;;;8.47;2.47;;;19.90;99.90;;;;;;5073112;28;20195;-72
2022/09/21 05:26:54;;;;;;;26.43;5.53;;;19.80;99.90;;;;;;5072525;28;20246;-69
2022/09/21 05:29:23;;;;;;;17.60;4.97;;;19.80;99.90;;;;;;5073343;28;20272;-73
2022/09/21 05:32:13;;;;;;;7.53;2.73;;;19.70;99.90;;;;;;5073241;28;20223;-69
2022/09/21 05:34:57;;;;;;;14.03;2.50;;;19.70;99.90;;;;;;5044989;28;20212;-72
2022/09/21 05:37:37;;;;;;;15.50;5.40;;;19.70;99.90;;;;;;5073231;28;20179;-69
2022/09/21 05:40:07;;;;;;;13.20;3.07;;;19.70;99.90;;;;;;5073811;28;20258;-72
2022/09/21 05:42:34;;;;;;;10.50;2.77;;;19.60;99.90;;;;;;5071717;28;20739;-69
2022/09/21 05:45:02;;;;;;;11.10;3.10;;;19.50;99.90;;;;;;5071645;28;20653;-68
2022/09/21 05:47:43;;;;;;;12.73;2.63;;;19.50;99.90;;;;;;5071725;28;20548;-71
2022/09/21 05:50:25;;;;;;;13.07;3.33;;;19.50;99.90;;;;;;5073573;28;20164;-70
2022/09/21 05:53:25;;;;;;;14.60;3.10;;;19.50;99.90;;;;;;5073115;28;20190;-72
2022/09/21 05:55:57;;;;;;;10.03;2.97;;;19.40;99.90;;;;;;5073293;28;20207;-70
2022/09/21 05:58:44;;;;;;;10.20;2.93;;;19.30;99.90;;;;;;5073558;28;20657;-68
2022/09/21 06:01:26;;;;;;;8.13;2.60;;;19.30;99.90;;;;;;5072873;28;20229;-71
2022/09/21 06:04:07;;;;;;;18.27;4.37;;;19.30;99.90;;;;;;5071410;28;20180;-69
2022/09/21 06:06:36;;;;;;;11.23;3.37;;;19.30;99.90;;;;;;5073184;28;20175;-69
2022/09/21 06:09:03;;;;;;;15.37;3.83;;;19.30;99.90;;;;;;5076642;28;20168;-69
2022/09/21 06:11:33;;;;;;;7.83;2.60;;;19.20;99.90;;;;;;5076555;28;20175;-71
2022/09/21 06:14:02;;;;;;;8.00;2.87;;;19.30;99.90;;;;;;5076922;28;20313;-70
2022/09/21 06:16:42;;;;;;;7.20;2.70;;;19.30;99.90;;;;;;5076664;28;20246;-73
2022/09/21 06:19:13;;;;;;;12.67;3.33;;;19.30;99.90;;;;;;5076387;28;20176;-70
2022/09/21 06:21:41;;;;;;;10.07;3.00;;;19.30;99.90;;;;;;5076375;28;20254;-73
2022/09/21 06:24:17;;;;;;;11.33;3.63;;;19.20;99.90;;;;;;5076645;28;20591;-69
2022/09/21 06:26:46;;;;;;;14.67;3.37;;;19.20;99.90;;;;;;5076296;28;20238;-70
2022/09/21 06:29:14;;;;;;;13.33;3.60;;;19.10;99.90;;;;;;5075060;28;20190;-69
2022/09/21 06:31:41;;;;;;;10.77;4.57;;;19.10;99.90;;;;;;5076162;28;20544;-70
2022/09/21 06:34:16;;;;;;;12.37;3.30;;;19.00;99.90;;;;;;5076435;28;20231;-72
2022/09/21 06:36:48;;;;;;;13.30;4.30;;;18.90;99.90;;;;;;5076366;28;20241;-69
2022/09/21 06:39:19;;;;;;;10.47;3.10;;;18.90;99.90;;;;;;5076074;28;20226;-70
2022/09/21 06:41:48;;;;;;;6.67;3.07;;;18.90;99.90;;;;;;5075948;28;20169;-70
2022/09/21 06:44:16;;;;;;;15.63;3.53;;;18.80;99.90;;;;;;5075534;28;20602;-71
2022/09/21 06:46:44;;;;;;;10.47;3.90;;;18.80;99.90;;;;;;5075209;28;20180;-69
2022/09/21 06:49:12;;;;;;;11.37;3.00;;;18.80;99.90;;;;;;5075786;28;20527;-72
2022/09/21 06:51:40;;;;;;;9.17;3.20;;;18.80;99.90;;;;;;5075838;28;20665;-69
2022/09/21 06:54:07;;;;;;;17.83;3.43;;;18.70;99.90;;;;;;5075821;28;20187;-67
2022/09/21 06:56:35;;;;;;;9.77;3.47;;;18.60;99.90;;;;;;5075984;28;20218;-71
2022/09/21 06:59:04;;;;;;;4.63;2.17;;;18.60;99.90;;;;;;5075022;28;20696;-69
2022/09/21 07:01:32;;;;;;;12.23;3.00;;;18.60;99.90;;;;;;5075278;28;20180;-68
2022/09/21 07:04:00;;;;;;;9.73;3.00;;;18.60;99.90;;;;;;5076188;28;20176;-68
2022/09/21 07:06:28;;;;;;;14.00;2.77;;;18.50;99.90;;;;;;5075629;28;20188;-71
2022/09/21 07:09:02;;;;;;;10.63;2.93;;;18.50;99.90;;;;;;5075625;28;20231;-69
2022/09/21 07:11:29;;;;;;;13.77;3.70;;;18.50;99.90;;;;;;5075582;28;20199;-71
2022/09/21 07:14:02;;;;;;;8.80;3.60;;;18.50;99.90;;;;;;5076936;28;20219;-67
2022/09/21 07:16:32;;;;;;;9.37;3.23;;;18.50;99.90;;;;;;5076813;28;20218;-72
2022/09/21 07:19:00;;;;;;;13.13;3.00;;;18.40;99.90;;;;;;5056889;28;20195;-72
2022/09/21 07:21:28;;;;;;;6.47;2.37;;;18.40;99.90;;;;;;5075435;28;20262;-73
2022/09/21 07:24:02;;;;;;;10.70;2.53;;;18.30;99.90;;;;;;5073985;28;20191;-69
2022/09/21 07:26:30;;;;;;;5.83;2.30;;;18.30;99.90;;;;;;5074875;28;20254;-74
2022/09/21 07:28:57;;;;;;;11.20;3.20;;;18.30;99.90;;;;;;5075226;28;20513;-69
2022/09/21 07:31:28;;;;;;;9.07;3.00;;;18.20;99.90;;;;;;5074857;28;20265;-68
2022/09/21 07:34:00;;;;;;;10.23;2.90;;;18.20;99.90;;;;;;5073654;28;20280;-72
2022/09/21 07:36:28;;;;;;;10.80;3.30;;;18.20;99.90;;;;;;5073406;28;20300;-73
2022/09/21 07:38:59;;;;;;;6.43;2.53;;;18.20;99.90;;;;;;5074751;28;20633;-69
2022/09/21 07:41:30;;;;;;;5.73;2.30;;;18.10;99.90;;;;;;5075166;28;20212;-70
2022/09/21 07:44:00;;;;;;;6.93;2.97;;;18.10;99.90;;;;;;5074232;28;20204;-71
2022/09/21 07:46:27;;;;;;;10.63;2.80;;;18.00;99.90;;;;;;5074699;28;20682;-69
2022/09/21 07:48:56;;;;;;;5.80;2.70;;;17.90;99.90;;;;;;5074498;28;20172;-73
2022/09/21 07:51:28;;;;;;;6.30;2.70;;;17.80;99.90;;;;;;5074658;28;20701;-71
2022/09/21 07:53:58;;;;;;;5.70;3.20;;;17.70;99.90;;;;;;5074493;28;20175;-71
2022/09/21 07:56:26;;;;;;;7.37;3.00;;;17.70;99.90;;;;;;5072997;28;20207;-71
2022/09/21 07:59:07;;;;;;;7.23;3.57;;;17.60;99.90;;;;;;5074386;28;20211;-72
2022/09/21 08:01:36;;;;;;;16.40;3.83;;;17.60;99.90;;;;;;5074482;28;20262;-73
2022/09/21 08:04:06;;;;;;;8.67;3.70;;;17.50;99.90;;;;;;5074107;28;20181;-69
2022/09/21 08:06:38;;;;;;;10.37;3.37;;;17.40;99.90;;;;;;5074322;28;20167;-72
2022/09/21 08:09:08;;;;;;;9.33;3.40;;;17.40;99.90;;;;;;5073107;28;20645;-72
2022/09/21 08:11:43;;;;;;;7.80;3.50;;;17.50;99.90;;;;;;5072860;28;20186;-69
2022/09/21 08:14:18;;;;;;;9.97;3.10;;;17.40;99.90;;;;;;5074294;28;20634;-70
2022/09/21 08:16:47;;;;;;;8.13;3.10;;;17.40;99.90;;;;;;5074314;28;20207;-68
2022/09/21 08:19:16;;;;;;;7.23;3.90;;;17.40;99.90;;;;;;5071718;28;20248;-69
2022/09/21 08:21:44;;;;;;;7.70;3.47;;;17.30;99.90;;;;;;5065171;28;20238;-69
2022/09/21 08:24:12;;;;;;;9.70;3.93;;;17.30;99.90;;;;;;5072870;28;20180;-70
2022/09/21 08:26:40;;;;;;;7.83;3.37;;;17.30;99.90;;;;;;5056650;28;20236;-68
2022/09/21 08:29:08;;;;;;;9.23;3.73;;;17.20;99.90;;;;;;5075078;28;20221;-68
2022/09/21 08:31:38;;;;;;;6.80;3.60;;;17.20;99.90;;;;;;5060944;28;20184;-69
2022/09/21 08:34:06;;;;;;;9.30;4.43;;;17.20;99.90;;;;;;5060773;28;20176;-69
2022/09/21 08:36:34;;;;;;;13.13;4.30;;;17.10;99.90;;;;;;5055681;28;20219;-67
2022/09/21 08:39:02;;;;;;;8.97;3.80;;;17.00;99.90;;;;;;5053648;28;20642;-69
2022/09/21 08:41:58;;;;;;;9.97;4.10;;;17.00;99.90;;;;;;5053618;28;20189;-68
2022/09/21 08:44:40;;;;;;;5.67;3.83;;;17.00;99.90;;;;;;5062413;28;20203;-69
2022/09/21 08:47:33;;;;;;;9.20;4.07;;;17.00;99.90;;;;;;5061855;28;20176;-69
2022/09/21 08:50:05;;;;;;;9.63;4.17;;;16.90;99.90;;;;;;5062175;28;20195;-69
2022/09/21 08:52:37;;;;;;;14.73;4.33;;;16.90;99.90;;;;;;5067748;28;20190;-66
2022/09/21 08:55:16;;;;;;;8.50;4.33;;;16.80;99.90;;;;;;5066934;28;20302;-68
2022/09/21 08:57:44;;;;;;;7.00;3.60;;;16.80;99.90;;;;;;5060821;28;20214;-69
2022/09/21 09:00:17;;;;;;;7.60;4.33;;;16.80;99.90;;;;;;5063008;28;20178;-68
2022/09/21 09:03:23;;;;;;;11.27;4.73;;;16.80;99.90;;;;;;5073390;28;20183;-67
2022/09/21 09:06:19;;;;;;;10.07;4.53;;;16.70;99.90;;;;;;5072219;28;20573;-67
2022/09/21 09:09:24;;;;;;;18.10;4.53;;;16.70;99.90;;;;;;5073867;28;20242;-69
2022/09/21 09:12:23;;;;;;;8.77;4.33;;;16.80;99.90;;;;;;5073471;28;20174;-68
2022/09/21 09:15:17;;;;;;;12.07;4.10;;;16.60;99.90;;;;;;5073674;28;20285;-68
2022/09/21 09:17:58;;;;;;;15.40;4.93;;;16.60;99.90;;;;;;5071817;28;20278;-67
2022/09/21 09:20:46;;;;;;;6.43;3.90;;;16.50;99.90;;;;;;5072356;28;20176;-68
2022/09/21 09:23:17;;;;;;;9.00;4.23;;;16.50;99.90;;;;;;5072973;28;20184;-69
2022/09/21 09:25:51;;;;;;;8.90;4.83;;;16.40;99.90;;;;;;5067332;28;20211;-68
2022/09/21 09:28:37;;;;;;;8.13;4.20;;;16.40;99.90;;;;;;5055751;28;20203;-69
2022/09/21 09:31:21;;;;;;;9.37;4.53;;;16.40;99.90;;;;;;5054406;28;20290;-68
2022/09/21 09:33:54;;;;;;;7.63;4.90;;;16.40;99.90;;;;;;5053328;28;20184;-67
2022/09/21 09:36:24;;;;;;;12.87;5.67;;;16.30;99.90;;;;;;5064956;28;20208;-68
2022/09/21 09:39:18;;;;;;;12.40;5.83;;;16.30;99.90;;;;;;5072453;28;20194;-69
2022/09/21 09:41:46;;;;;;;9.27;4.90;;;16.40;99.90;;;;;;5073567;28;20271;-69
2022/09/21 09:44:54;;;;;;;10.37;6.17;;;16.30;99.90;;;;;;5076247;28;20649;-69
2022/09/21 09:47:31;;;;;;;12.93;4.87;;;16.30;99.90;;;;;;5056753;28;20180;-68
2022/09/21 09:50:11;;;;;;;13.30;5.37;;;16.40;99.90;;;;;;5068148;28;20180;-68
2022/09/21 09:52:40;;;;;;;11.27;4.87;;;16.40;99.90;;;;;;5077428;28;20258;-68
2022/09/21 09:55:34;;;;;;;12.93;5.07;;;16.40;99.90;;;;;;5075602;28;20215;-69
2022/09/21 09:58:03;;;;;;;10.17;5.97;;;16.40;99.90;;;;;;5074937;28;20203;-69
2022/09/21 10:00:31;;;;;;;11.33;5.37;;;16.40;99.90;;;;;;5075119;28;20191;-70
2022/09/21 10:03:01;;;;;;;13.37;5.03;;;16.30;99.90;;;;;;5070851;28;20186;-67
2022/09/21 10:05:40;;;;;;;8.93;4.53;;;16.30;99.90;;;;;;5072935;28;20258;-68
2022/09/21 10:08:42;;;;;;;10.40;5.27;;;16.20;99.90;;;;;;5074293;28;20188;-67
2022/09/21 10:11:39;;;;;;;11.13;5.47;;;16.20;99.90;;;;;;5065947;28;20196;-68
2022/09/21 10:14:19;;;;;;;9.00;5.73;;;16.20;99.90;;;;;;5074971;28;20183;-69
2022/09/21 10:16:52;;;;;;;14.73;5.50;;;16.20;99.90;;;;;;5069356;28;20686;-69
2022/09/21 10:19:29;;;;;;;13.10;5.33;;;16.20;99.90;;;;;;5055254;28;20570;-68
2022/09/21 10:22:14;;;;;;;12.77;5.47;;;16.20;99.90;;;;;;5055775;28;20196;-68
2022/09/21 10:24:52;;;;;;;13.07;6.30;;;16.20;99.90;;;;;;5055016;28;20184;-68
2022/09/21 10:27:27;;;;;;;10.67;6.17;;;16.20;99.90;;;;;;5061336;28;20689;-68
2022/09/21 10:29:55;;;;;;;12.37;5.83;;;16.30;99.90;;;;;;5074941;28;20195;-68
2022/09/21 10:32:26;;;;;;;13.97;5.33;;;16.30;99.90;;;;;;5074297;28;20242;-68
2022/09/21 10:35:09;;;;;;;11.93;5.57;;;16.30;99.90;;;;;;5074394;28;20689;-67
2022/09/21 10:37:40;;;;;;;11.13;5.77;;;16.30;99.90;;;;;;5074731;28;20194;-68
2022/09/21 10:40:24;;;;;;;9.83;5.47;;;16.20;99.90;;;;;;5073505;28;20328;-69
2022/09/21 10:42:58;;;;;;;16.97;6.20;;;16.30;99.90;;;;;;5074781;28;20183;-69
2022/09/21 10:45:30;;;;;;;15.77;6.90;;;16.30;99.90;;;;;;5071936;28;20192;-68
2022/09/21 10:48:12;;;;;;;10.80;5.87;;;16.30;99.90;;;;;;5071075;28;20270;-68
2022/09/21 10:50:41;;;;;;;10.07;5.83;;;16.40;99.90;;;;;;5069514;28;20275;-68
2022/09/21 10:53:28;;;;;;;10.83;5.43;;;16.40;99.90;;;;;;5073464;28;20177;-68
2022/09/21 10:55:56;;;;;;;12.50;6.37;;;16.30;99.90;;;;;;5073535;28;20231;-68
2022/09/21 10:58:24;;;;;;;13.03;6.07;;;16.30;99.90;;;;;;5073060;28;20184;-67
2022/09/21 11:00:54;;;;;;;11.37;5.60;;;16.30;99.90;;;;;;5072103;28;20540;-67
2022/09/21 11:03:52;;;;;;;11.73;5.77;;;16.30;99.90;;;;;;5067074;28;20649;-69
2022/09/21 11:06:34;;;;;;;12.60;6.43;;;16.30;99.90;;;;;;5066223;28;20187;-68
2022/09/21 11:09:14;;;;;;;14.80;5.90;;;16.30;99.90;;;;;;5068611;28;20201;-68
2022/09/21 11:11:53;;;;;;;14.33;5.97;;;16.30;99.90;;;;;;5070766;28;20214;-68
2022/09/21 11:14:34;;;;;;;9.40;5.67;;;16.20;99.90;;;;;;5067625;28;20990;-68
2022/09/21 11:17:30;;;;;;;12.50;5.50;;;16.20;99.90;;;;;;5073853;28;20669;-68
2022/09/21 11:20:22;;;;;;;10.37;5.80;;;16.20;99.90;;;;;;5067619;28;20188;-69
2022/09/21 11:23:19;;;;;;;12.97;6.60;;;16.20;99.90;;;;;;5053496;28;20192;-69
2022/09/21 11:26:04;;;;;;;14.93;6.27;;;16.20;99.90;;;;;;5066808;28;20227;-69
2022/09/21 11:28:49;;;;;;;14.97;6.63;;;16.30;99.90;;;;;;5072027;28;20354;-69
2022/09/21 11:31:27;;;;;;;15.93;6.43;;;16.20;99.90;;;;;;5072930;28;20230;-69
2022/09/21 11:34:09;;;;;;;8.87;5.43;;;16.20;99.90;;;;;;5073039;28;20585;-69
2022/09/21 11:36:49;;;;;;;10.40;6.13;;;16.20;99.90;;;;;;5072777;28;20246;-69
2022/09/21 11:40:00;;;;;;;12.10;6.10;;;16.10;99.90;;;;;;5072980;28;20215;-69
2022/09/21 11:42:47;;;;;;;12.03;5.47;;;16.20;99.90;;;;;;5072727;28;20259;-69
2022/09/21 11:45:38;;;;;;;12.80;5.40;;;16.30;99.90;;;;;;5073080;28;20229;-70
2022/09/21 11:48:09;;;;;;;7.53;4.70;;;16.30;99.90;;;;;;5071609;28;20613;-69
2022/09/21 11:50:37;;;;;;;11.87;4.67;;;16.30;99.90;;;;;;5071614;28;20184;-69
2022/09/21 11:53:22;;;;;;;11.47;5.10;;;16.30;99.90;;;;;;5072872;28;20673;-68
2022/09/21 11:56:11;;;;;;;9.53;4.93;;;16.30;99.90;;;;;;5072685;28;20208;-69
2022/09/21 11:58:57;;;;;;;12.87;5.07;;;16.30;99.90;;;;;;5072457;28;20721;-68
2022/09/21 12:01:49;;;;;;;12.13;5.40;;;16.20;99.90;;;;;;5072489;28;20236;-69
2022/09/21 12:04:42;;;;;;;12.20;4.70;;;16.20;99.90;;;;;;5072255;28;20184;-69
2022/09/21 12:07:23;;;;;;;13.87;5.43;;;16.20;99.90;;;;;;5072733;28;20218;-69
2022/09/21 12:10:14;;;;;;;9.30;4.37;;;16.10;99.90;;;;;;5072309;28;20229;-69
2022/09/21 12:13:05;;;;;;;9.93;4.40;;;16.10;99.90;;;;;;5072742;28;20549;-68
2022/09/21 12:15:39;;;;;;;13.83;5.00;;;16.10;99.90;;;;;;5072406;28;20210;-69
2022/09/21 12:18:40;;;;;;;10.23;5.53;;;16.10;99.90;;;;;;5072322;28;20679;-68
2022/09/21 12:21:23;;;;;;;6.53;4.93;;;16.10;99.90;;;;;;5068971;28;20238;-69
2022/09/21 12:24:04;;;;;;;14.40;6.90;;;16.10;99.90;;;;;;5072039;28;20191;-69
2022/09/21 12:26:46;;;;;;;16.77;6.50;;;16.10;99.90;;;;;;5052400;28;20255;-70
2022/09/21 12:29:18;;;;;;;17.50;7.73;;;16.10;99.90;;;;;;5059613;28;20210;-69
2022/09/21 12:32:12;;;;;;;18.20;11.67;;;16.10;99.90;;;;;;5072168;28;20175;-67
2022/09/21 12:34:43;;;;;;;17.30;11.27;;;16.10;99.90;;;;;;5064111;28;20663;-67
2022/09/21 12:37:42;;;;;;;18.13;11.60;;;16.00;99.90;;;;;;5070950;28;20192;-67
2022/09/21 12:40:33;;;;;;;21.27;12.33;;;16.00;99.90;;;;;;5071664;28;20195;-67
2022/09/21 12:43:15;;;;;;;24.97;12.57;;;16.00;99.90;;;;;;5072132;28;20255;-69
2022/09/21 12:45:51;;;;;;;17.47;11.90;;;15.90;99.90;;;;;;5072103;28;20187;-68
2022/09/21 12:48:35;;;;;;;20.27;10.33;;;15.90;99.90;;;;;;5072012;28;20177;-69
2022/09/21 12:51:28;;;;;;;14.50;8.83;;;15.90;99.90;;;;;;5064503;28;20176;-69
2022/09/21 12:53:59;;;;;;;12.83;7.23;;;15.90;99.90;;;;;;5053886;28;20214;-69
2022/09/21 12:56:44;;;;;;;12.63;7.93;;;15.90;99.90;;;;;;5071813;28;20459;-69
2022/09/21 12:59:30;;;;;;;12.97;7.47;;;15.80;99.90;;;;;;5072115;28;20199;-69
2022/09/21 13:02:12;;;;;;;14.30;7.97;;;15.80;99.90;;;;;;5071988;28;20683;-69
2022/09/21 13:04:52;;;;;;;15.57;8.03;;;15.80;99.90;;;;;;5051849;28;20187;-69
2022/09/21 13:07:34;;;;;;;12.80;7.23;;;15.70;99.90;;;;;;5051903;28;20191;-68
2022/09/21 13:10:14;;;;;;;14.53;8.37;;;15.70;99.90;;;;;;5051955;28;20210;-70
2022/09/21 13:12:45;;;;;;;15.83;7.17;;;15.60;99.90;;;;;;5056502;28;20175;-69
2022/09/21 13:15:42;;;;;;;12.90;7.67;;;15.60;99.90;;;;;;5071702;28;20699;-69
2022/09/21 13:18:33;;;;;;;15.40;7.57;;;15.60;99.90;;;;;;5071170;28;20262;-69
2022/09/21 13:21:28;;;;;;;14.63;7.30;;;15.60;99.90;;;;;;5071566;28;20195;-68
2022/09/21 13:24:06;;;;;;;11.87;7.27;;;15.50;99.90;;;;;;5071268;28;20183;-68
2022/09/21 13:26:37;;;;;;;14.50;7.73;;;15.50;99.90;;;;;;5071416;28;20597;-69
2022/09/21 13:29:36;;;;;;;11.80;6.93;;;15.40;99.90;;;;;;5071770;28;20172;-68